createdAt,value
2023-03-16T00:02:14.955Z,100267.94
2023-03-16T00:04:41.877Z,100268.88
2023-03-16T00:07:12.068Z,100270.09
2023-03-16T00:09:43.049Z,100273.22
2023-03-16T00:12:16.043Z,100270.13
2023-03-16T00:14:44.685Z,100282.16
2023-03-16T00:17:20.478Z,100278.09
2023-03-16T00:19:55.797Z,100281.88
2023-03-16T00:22:24.526Z,100278.63
2023-03-16T00:24:52.977Z,100282.66
2023-03-16T00:27:22.910Z,100282.41
2023-03-16T00:29:56.134Z,100283.50
2023-03-16T00:32:29.903Z,100290.50
2023-03-16T00:34:58.008Z,100284.28
2023-03-16T00:37:26.756Z,100291.88
2023-03-16T00:39:58.027Z,100282.81
2023-03-16T00:42:27.762Z,100290.91
2023-03-16T00:44:57.776Z,100282.44
2023-03-16T00:47:26.889Z,100281.06
2023-03-16T00:49:54.000Z,100282.16
2023-03-16T00:52:22.258Z,100286.72
2023-03-16T00:54:49.156Z,100283.63
2023-03-16T00:57:21.607Z,100280.38
2023-03-16T00:59:48.993Z,100297.38
2023-03-16T01:02:19.326Z,100293.72
2023-03-16T01:04:46.148Z,100295.59
2023-03-16T01:07:14.666Z,100291.03
2023-03-16T01:09:42.472Z,100290.75
2023-03-16T01:12:14.772Z,100299.91
2023-03-16T01:14:42.596Z,100299.69
2023-03-16T01:17:10.478Z,100295.63
2023-03-16T01:19:37.958Z,100298.75
2023-03-16T01:22:06.809Z,100301.31
2023-03-16T01:24:34.822Z,100300.72
2023-03-16T01:27:02.185Z,100301.66
2023-03-16T01:29:29.888Z,100316.94
2023-03-16T01:31:59.156Z,100317.75
2023-03-16T01:34:26.200Z,100326.00
2023-03-16T01:36:53.310Z,100319.66
2023-03-16T01:39:30.040Z,100330.69
2023-03-16T01:41:56.959Z,100328.66
2023-03-16T01:44:32.744Z,100334.19
2023-03-16T01:47:04.609Z,100332.03
2023-03-16T01:49:36.211Z,100333.13
2023-03-16T01:52:12.841Z,100327.34
2023-03-16T01:54:56.035Z,100331.81
2023-03-16T01:57:29.277Z,100325.31
2023-03-16T02:00:19.154Z,100333.25
2023-03-16T02:03:10.465Z,100332.47
2023-03-16T02:06:01.119Z,100325.31
2023-03-16T02:08:31.651Z,100332.19
2023-03-16T02:10:59.361Z,100319.78
2023-03-16T02:13:38.097Z,100331.63
2023-03-16T02:16:08.513Z,100323.13
2023-03-16T02:18:36.394Z,100328.13
2023-03-16T02:21:26.221Z,100324.75
2023-03-16T02:23:54.564Z,100323.53
2023-03-16T02:26:40.128Z,100329.34
2023-03-16T02:29:25.866Z,100330.53
2023-03-16T02:31:54.537Z,100340.09
2023-03-16T02:34:21.425Z,100349.53
2023-03-16T02:36:52.354Z,100354.16
2023-03-16T02:39:23.697Z,100354.94
2023-03-16T02:41:51.054Z,100356.03
2023-03-16T02:44:36.361Z,100368.66
2023-03-16T02:47:13.264Z,100374.84
2023-03-16T02:49:45.277Z,100372.00
2023-03-16T02:52:12.566Z,100379.66
2023-03-16T02:54:39.636Z,100384.47
2023-03-16T02:57:06.434Z,100383.31
2023-03-16T02:59:34.434Z,100382.22
2023-03-16T03:02:01.534Z,100389.28
2023-03-16T03:04:28.348Z,100386.47
2023-03-16T03:06:55.327Z,100393.28
2023-03-16T03:09:22.245Z,100390.41
2023-03-16T03:11:53.266Z,100393.28
2023-03-16T03:14:21.575Z,100399.84
2023-03-16T03:16:50.009Z,100406.47
2023-03-16T03:19:16.773Z,100406.59
2023-03-16T03:21:43.776Z,100407.66
2023-03-16T03:24:10.986Z,100405.47
2023-03-16T03:26:38.278Z,100410.84
2023-03-16T03:29:08.829Z,100413.16
2023-03-16T03:31:36.029Z,100411.66
2023-03-16T03:34:06.675Z,100406.22
2023-03-16T03:36:35.698Z,100419.81
2023-03-16T03:39:05.230Z,100416.59
2023-03-16T03:41:34.256Z,100429.09
2023-03-16T03:44:04.116Z,100422.97
2023-03-16T03:46:31.599Z,100430.59
2023-03-16T03:49:03.711Z,100432.09
2023-03-16T03:51:34.591Z,100430.88
2023-03-16T03:54:04.906Z,100438.13
2023-03-16T03:56:46.099Z,100440.00
2023-03-16T03:59:15.989Z,100440.81
2023-03-16T04:02:16.023Z,100446.28
2023-03-16T04:04:48.321Z,100449.22
2023-03-16T04:07:15.903Z,100443.94
2023-03-16T04:09:47.519Z,100443.66
2023-03-16T04:12:30.037Z,100458.88
2023-03-16T04:14:57.014Z,100457.84
2023-03-16T04:17:26.166Z,100447.44
2023-03-16T04:19:58.900Z,100456.16
2023-03-16T04:22:25.705Z,100455.44
2023-03-16T04:24:52.826Z,100456.84
2023-03-16T04:27:21.245Z,100455.00
2023-03-16T04:29:48.045Z,100458.13
2023-03-16T04:32:15.335Z,100455.94
2023-03-16T04:34:43.946Z,100468.97
2023-03-16T04:37:13.549Z,100475.59
2023-03-16T04:39:42.962Z,100480.13
2023-03-16T04:42:10.247Z,100485.22
2023-03-16T04:44:44.305Z,100489.31
2023-03-16T04:47:16.066Z,100491.41
2023-03-16T04:49:44.319Z,100482.56
2023-03-16T04:52:11.603Z,100482.09
2023-03-16T04:54:38.571Z,100488.16
2023-03-16T04:57:05.952Z,100491.09
2023-03-16T04:59:43.876Z,100487.81
2023-03-16T05:02:20.139Z,100489.22
2023-03-16T05:04:49.277Z,100487.72
2023-03-16T05:07:17.349Z,100495.84
2023-03-16T05:09:49.070Z,100503.16
2023-03-16T05:12:34.651Z,100493.53
2023-03-16T05:15:05.882Z,100500.16
2023-03-16T05:17:40.071Z,100504.44
2023-03-16T05:20:08.419Z,100501.41
2023-03-16T05:22:42.857Z,100503.44
2023-03-16T05:25:16.381Z,100504.09
2023-03-16T05:27:50.445Z,100507.69
2023-03-16T05:30:24.757Z,100514.09
2023-03-16T05:32:54.858Z,100523.03
2023-03-16T05:35:24.116Z,100516.00
2023-03-16T05:37:53.565Z,100518.56
2023-03-16T05:40:23.074Z,100513.09
2023-03-16T05:43:04.453Z,100514.19
2023-03-16T05:45:34.693Z,100521.94
2023-03-16T05:48:08.319Z,100526.91
2023-03-16T05:50:41.625Z,100540.59
2023-03-16T05:53:09.447Z,100535.22
2023-03-16T05:55:38.335Z,100541.16
2023-03-16T05:58:08.766Z,100543.31
2023-03-16T06:00:39.494Z,100542.81
2023-03-16T06:03:22.727Z,100556.38
2023-03-16T06:05:50.562Z,100557.31
2023-03-16T06:08:24.048Z,100562.59
2023-03-16T06:10:52.059Z,100560.41
2023-03-16T06:13:21.553Z,100573.06
2023-03-16T06:15:49.358Z,100577.19
2023-03-16T06:18:16.342Z,100578.00
2023-03-16T06:20:47.184Z,100580.34
2023-03-16T06:23:14.774Z,100593.25
2023-03-16T06:25:41.870Z,100589.84
2023-03-16T06:28:09.642Z,100596.59
2023-03-16T06:30:36.416Z,100586.47
2023-03-16T06:33:03.302Z,100604.56
2023-03-16T06:35:30.180Z,100596.16
2023-03-16T06:38:18.155Z,100595.88
2023-03-16T06:41:01.788Z,100603.22
2023-03-16T06:43:29.582Z,100611.44
2023-03-16T06:45:56.404Z,100606.69
2023-03-16T06:48:23.216Z,100626.03
2023-03-16T06:50:50.312Z,100608.13
2023-03-16T06:53:22.876Z,100622.94
2023-03-16T06:55:50.086Z,100625.84
2023-03-16T06:58:17.264Z,100627.75
2023-03-16T07:00:45.155Z,100622.69
2023-03-16T07:03:12.788Z,100625.59
2023-03-16T07:05:46.644Z,100625.22
2023-03-16T07:08:15.382Z,100630.75
2023-03-16T07:10:42.791Z,100628.94
2023-03-16T07:13:09.591Z,100635.28
2023-03-16T07:15:36.489Z,100637.84
2023-03-16T07:18:05.476Z,100638.94
2023-03-16T07:20:33.126Z,100633.72
2023-03-16T07:23:04.727Z,100632.06
2023-03-16T07:25:32.132Z,100632.00
2023-03-16T07:27:59.992Z,100634.97
2023-03-16T07:30:32.817Z,100634.50
2023-03-16T07:32:59.935Z,100638.34
2023-03-16T07:35:27.473Z,100634.25
2023-03-16T07:37:55.397Z,100634.16
2023-03-16T07:40:24.159Z,100630.56
2023-03-16T07:42:51.512Z,100639.03
2023-03-16T07:45:34.491Z,100633.94
2023-03-16T07:48:03.978Z,100637.91
2023-03-16T07:50:38.998Z,100638.81
2023-03-16T07:53:06.107Z,100639.13
2023-03-16T07:55:36.913Z,100642.75
2023-03-16T07:58:06.205Z,100642.88
2023-03-16T08:00:38.207Z,100644.28
2023-03-16T08:03:05.586Z,100655.28
2023-03-16T08:05:33.099Z,100648.59
2023-03-16T08:08:02.162Z,100659.34
2023-03-16T08:10:31.939Z,100663.63
2023-03-16T08:13:05.929Z,100654.47
2023-03-16T08:15:35.096Z,100664.06
2023-03-16T08:18:10.217Z,100664.34
2023-03-16T08:20:37.022Z,100658.41
2023-03-16T08:23:03.853Z,100656.50
2023-03-16T08:25:37.743Z,100663.44
2023-03-16T08:28:12.769Z,100665.31
2023-03-16T08:30:49.457Z,100661.47
2023-03-16T08:33:27.987Z,100671.53
2023-03-16T08:35:56.089Z,100667.63
2023-03-16T08:38:23.149Z,100668.03
2023-03-16T08:40:52.222Z,100670.28
2023-03-16T08:43:21.484Z,100670.59
2023-03-16T08:45:49.503Z,100669.94
2023-03-16T08:48:18.436Z,100687.38
2023-03-16T08:50:48.999Z,100677.53
2023-03-16T08:53:15.841Z,100677.81
2023-03-16T08:55:43.098Z,100673.66
2023-03-16T08:58:12.204Z,100675.22
2023-03-16T09:00:40.396Z,100674.97
2023-03-16T09:03:07.632Z,100686.25
2023-03-16T09:05:34.803Z,100684.31
2023-03-16T09:08:01.925Z,100680.88
2023-03-16T09:10:29.117Z,100689.44
2023-03-16T09:12:56.795Z,100688.03
2023-03-16T09:15:23.702Z,100688.75
2023-03-16T09:17:50.578Z,100694.28
2023-03-16T09:20:22.822Z,100702.78
2023-03-16T09:23:01.813Z,100687.13
2023-03-16T09:25:28.907Z,100690.34
2023-03-16T09:27:55.858Z,100694.38
2023-03-16T09:30:22.719Z,100692.31
2023-03-16T09:32:50.531Z,100701.97
2023-03-16T09:35:18.102Z,100694.88
2023-03-16T09:38:01.074Z,100693.44
2023-03-16T09:40:33.491Z,100698.16
2023-03-16T09:43:03.775Z,100694.94
2023-03-16T09:46:08.433Z,100692.25
2023-03-16T09:48:37.019Z,100681.53
2023-03-16T09:51:08.318Z,100682.88
2023-03-16T09:53:39.414Z,100690.97
2023-03-16T09:56:15.822Z,100693.47
2023-03-16T09:58:42.798Z,100686.25
2023-03-16T10:01:35.836Z,100693.56
2023-03-16T10:04:08.658Z,100690.72
2023-03-16T10:06:48.303Z,100692.31
2023-03-16T10:09:36.096Z,100683.19
2023-03-16T10:12:06.297Z,100676.66
2023-03-16T10:14:48.044Z,100679.03
2023-03-16T10:17:19.162Z,100675.44
2023-03-16T10:20:10.939Z,100685.06
2023-03-16T10:22:42.864Z,100671.44
2023-03-16T10:25:29.664Z,100682.19
2023-03-16T10:27:57.477Z,100675.00
2023-03-16T10:30:33.000Z,100679.81
2023-03-16T10:33:30.080Z,100671.63
2023-03-16T10:36:19.378Z,100677.41
2023-03-16T10:38:58.293Z,100678.75
2023-03-16T10:41:32.700Z,100672.44
2023-03-16T10:44:17.818Z,100669.19
2023-03-16T10:46:48.753Z,100675.09
2023-03-16T10:49:36.377Z,100675.34
2023-03-16T10:52:14.254Z,100671.34
2023-03-16T10:54:47.898Z,100672.84
2023-03-16T10:57:31.395Z,100674.59
2023-03-16T11:00:21.052Z,100668.59
2023-03-16T11:02:49.765Z,100671.19
2023-03-16T11:05:19.375Z,100672.75
2023-03-16T11:08:12.325Z,100667.56
2023-03-16T11:10:54.764Z,100662.75
2023-03-16T11:13:24.708Z,100667.13
2023-03-16T11:16:02.880Z,100658.16
2023-03-16T11:18:39.209Z,100667.63
2023-03-16T11:21:21.106Z,100665.84
2023-03-16T11:23:52.765Z,100656.41
2023-03-16T11:26:34.542Z,100660.13
2023-03-16T11:29:11.212Z,100661.25
2023-03-16T11:31:49.578Z,100655.53
2023-03-16T11:34:24.036Z,100650.88
2023-03-16T11:36:57.181Z,100633.38
2023-03-16T11:39:56.530Z,100640.50
2023-03-16T11:42:29.173Z,100636.13
2023-03-16T11:45:23.002Z,100632.00
2023-03-16T11:47:55.520Z,100623.09
2023-03-16T11:50:33.833Z,100637.34
2023-03-16T11:53:05.014Z,100629.31
2023-03-16T11:55:53.148Z,100635.19
2023-03-16T11:58:46.357Z,100629.44
2023-03-16T12:01:50.553Z,100624.59
2023-03-16T12:04:36.924Z,100627.91
2023-03-16T12:07:03.574Z,100613.78
2023-03-16T12:10:03.032Z,100611.03
2023-03-16T12:13:01.966Z,100618.19
2023-03-16T12:15:50.005Z,100616.69
2023-03-16T12:18:24.692Z,100617.09
2023-03-16T12:21:01.686Z,100602.38
2023-03-16T12:23:36.034Z,100614.03
2023-03-16T12:26:03.911Z,100610.75
2023-03-16T12:28:33.421Z,100593.22
2023-03-16T12:31:11.244Z,100589.19
2023-03-16T12:33:59.611Z,100592.97
2023-03-16T12:36:57.823Z,100588.03
2023-03-16T12:39:50.243Z,100594.56
2023-03-16T12:42:45.971Z,100587.56
2023-03-16T12:45:16.632Z,100598.69
2023-03-16T12:47:48.180Z,100602.19
2023-03-16T12:50:18.794Z,100588.38
2023-03-16T12:52:51.332Z,100592.41
2023-03-16T12:55:27.893Z,100606.72
2023-03-16T12:58:05.082Z,100595.53
2023-03-16T13:00:42.684Z,100589.56
2023-03-16T13:03:16.609Z,100586.59
2023-03-16T13:05:51.971Z,100586.53
2023-03-16T13:08:21.267Z,100589.63
2023-03-16T13:11:09.682Z,100578.72
2023-03-16T13:13:52.629Z,100578.44
2023-03-16T13:16:32.292Z,100582.56
2023-03-16T13:18:59.552Z,100580.56
2023-03-16T13:21:37.297Z,100582.63
2023-03-16T13:24:15.798Z,100587.13
2023-03-16T13:26:52.244Z,100586.00
2023-03-16T13:29:25.680Z,100588.84
2023-03-16T13:31:54.664Z,100579.84
2023-03-16T13:34:31.973Z,100587.13
2023-03-16T13:37:01.775Z,100583.16
2023-03-16T13:39:31.556Z,100579.84
2023-03-16T13:42:14.135Z,100581.78
2023-03-16T13:44:42.521Z,100578.47
2023-03-16T13:47:17.153Z,100578.16
2023-03-16T13:49:47.403Z,100578.75
2023-03-16T13:52:21.004Z,100581.41
2023-03-16T13:54:49.094Z,100576.28
2023-03-16T13:57:18.936Z,100587.44
2023-03-16T13:59:46.375Z,100576.97
2023-03-16T14:02:25.090Z,100574.31
2023-03-16T14:04:51.895Z,100580.56
2023-03-16T14:07:20.886Z,100576.19
2023-03-16T14:09:49.875Z,100586.53
2023-03-16T14:12:18.912Z,100578.38
2023-03-16T14:14:50.761Z,100572.56
2023-03-16T14:17:20.769Z,100574.78
2023-03-16T14:20:00.067Z,100575.84
2023-03-16T14:22:38.131Z,100574.91
2023-03-16T14:25:06.757Z,100571.88
2023-03-16T14:27:45.102Z,100566.50
2023-03-16T14:30:15.171Z,100565.22
2023-03-16T14:32:42.422Z,100564.44
2023-03-16T14:35:14.789Z,100565.19
2023-03-16T14:37:42.414Z,100570.47
2023-03-16T14:40:25.412Z,100573.81
2023-03-16T14:42:54.774Z,100572.75
2023-03-16T14:45:22.070Z,100566.91
2023-03-16T14:47:50.632Z,100568.63
2023-03-16T14:50:25.918Z,100575.03
2023-03-16T14:52:55.956Z,100566.25
2023-03-16T14:55:24.080Z,100569.81
2023-03-16T14:57:51.503Z,100561.13
2023-03-16T15:00:20.088Z,100573.47
2023-03-16T15:02:59.914Z,100573.03
2023-03-16T15:05:48.578Z,100561.72
2023-03-16T15:08:31.472Z,100567.41
2023-03-16T15:11:05.876Z,100572.03
2023-03-16T15:13:42.135Z,100573.78
2023-03-16T15:16:14.123Z,100579.19
2023-03-16T15:18:42.685Z,100579.53
2023-03-16T15:21:25.038Z,100584.13
2023-03-16T15:23:52.259Z,100587.06
2023-03-16T15:26:26.328Z,100577.09
2023-03-16T15:28:53.690Z,100579.06
2023-03-16T15:31:20.862Z,100574.41
2023-03-16T15:33:47.846Z,100578.41
2023-03-16T15:36:18.246Z,100580.44
2023-03-16T15:38:50.363Z,100579.53
2023-03-16T15:41:17.777Z,100587.00
2023-03-16T15:43:45.818Z,100582.03
2023-03-16T15:46:13.377Z,100576.50
2023-03-16T15:48:40.358Z,100581.97
2023-03-16T15:51:14.535Z,100583.59
2023-03-16T15:53:50.245Z,100584.78
2023-03-16T15:56:22.802Z,100589.56
2023-03-16T15:58:50.774Z,100593.13
2023-03-16T16:01:37.792Z,100590.19
2023-03-16T16:04:07.037Z,100586.25
2023-03-16T16:06:33.912Z,100587.59
2023-03-16T16:09:01.075Z,100597.16
2023-03-16T16:11:28.350Z,100587.59
2023-03-16T16:13:59.447Z,100589.59
2023-03-16T16:16:31.184Z,100592.78
2023-03-16T16:18:58.298Z,100597.94
2023-03-16T16:21:32.605Z,100594.38
2023-03-16T16:24:01.326Z,100601.53
2023-03-16T16:26:49.004Z,100605.09
2023-03-16T16:29:36.751Z,100601.72
2023-03-16T16:32:03.802Z,100602.25
2023-03-16T16:34:31.223Z,100599.38
2023-03-16T16:36:58.371Z,100598.41
2023-03-16T16:39:25.637Z,100602.13
2023-03-16T16:41:55.033Z,100602.63
2023-03-16T16:44:27.318Z,100605.53
2023-03-16T16:46:55.526Z,100606.88
2023-03-16T16:49:25.972Z,100604.91
2023-03-16T16:51:54.513Z,100608.31
2023-03-16T16:54:27.728Z,100612.69
2023-03-16T16:56:56.360Z,100613.34
2023-03-16T16:59:36.945Z,100615.59
2023-03-16T17:02:22.577Z,100615.75
2023-03-16T17:04:50.914Z,100622.69
2023-03-16T17:07:18.124Z,100623.38
2023-03-16T17:09:45.163Z,100613.34
2023-03-16T17:12:21.785Z,100621.59
2023-03-16T17:14:49.996Z,100626.56
2023-03-16T17:17:18.152Z,100618.66
2023-03-16T17:19:47.002Z,100624.94
2023-03-16T17:22:28.605Z,100627.53
2023-03-16T17:24:55.758Z,100627.53
2023-03-16T17:27:29.364Z,100626.22
2023-03-16T17:29:57.752Z,100630.13
2023-03-16T17:32:25.146Z,100631.22
2023-03-16T17:34:52.341Z,100633.31
2023-03-16T17:37:22.204Z,100638.63
2023-03-16T17:39:49.233Z,100636.56
2023-03-16T17:42:18.650Z,100635.88
2023-03-16T17:44:51.319Z,100636.53
2023-03-16T17:47:26.566Z,100627.78
2023-03-16T17:49:54.081Z,100637.44
2023-03-16T17:52:26.263Z,100642.25
2023-03-16T17:54:54.482Z,100643.69
2023-03-16T17:57:30.424Z,100653.03
2023-03-16T17:59:58.385Z,100657.38
2023-03-16T18:02:50.164Z,100660.88
2023-03-16T18:05:21.077Z,100667.00
2023-03-16T18:07:48.448Z,100665.69
2023-03-16T18:10:17.988Z,100666.97
2023-03-16T18:12:46.443Z,100663.72
2023-03-16T18:15:20.946Z,100678.03
2023-03-16T18:17:48.491Z,100677.53
2023-03-16T18:20:22.860Z,100681.38
2023-03-16T18:22:50.359Z,100679.47
2023-03-16T18:25:36.250Z,100681.03
2023-03-16T18:28:03.110Z,100681.69
2023-03-16T18:30:30.884Z,100675.03
2023-03-16T18:32:59.329Z,100674.09
2023-03-16T18:35:26.288Z,100677.78
2023-03-16T18:37:56.248Z,100684.22
2023-03-16T18:40:24.702Z,100685.47
2023-03-16T18:42:53.944Z,100695.44
2023-03-16T18:45:21.163Z,100694.13
2023-03-16T18:47:52.076Z,100693.09
2023-03-16T18:50:27.578Z,100699.22
2023-03-16T18:52:55.478Z,100698.00
2023-03-16T18:55:24.600Z,100700.88
2023-03-16T18:57:52.867Z,100698.78
2023-03-16T19:00:24.660Z,100700.81
2023-03-16T19:02:55.509Z,100697.72
2023-03-16T19:05:30.328Z,100695.44
2023-03-16T19:07:57.302Z,100695.44
2023-03-16T19:10:37.886Z,100699.03
2023-03-16T19:13:09.873Z,100701.84
2023-03-16T19:15:36.721Z,100709.22
2023-03-16T19:18:03.633Z,100702.59
2023-03-16T19:20:32.649Z,100712.38
2023-03-16T19:23:07.191Z,100716.22
2023-03-16T19:25:39.887Z,100709.44
2023-03-16T19:28:12.362Z,100699.06
2023-03-16T19:30:39.565Z,100703.84
2023-03-16T19:33:18.580Z,100702.63
2023-03-16T19:35:51.793Z,100705.06
2023-03-16T19:38:19.886Z,100712.59
2023-03-16T19:40:49.616Z,100713.13
2023-03-16T19:43:18.766Z,100713.59
2023-03-16T19:45:46.909Z,100709.38
2023-03-16T19:48:22.778Z,100709.13
2023-03-16T19:50:51.046Z,100708.31
2023-03-16T19:53:20.724Z,100706.56
2023-03-16T19:55:49.275Z,100712.81
2023-03-16T19:58:43.440Z,100713.66
2023-03-16T20:01:23.556Z,100710.81
2023-03-16T20:03:51.696Z,100716.09
2023-03-16T20:06:21.082Z,100717.84
2023-03-16T20:08:48.646Z,100727.50
2023-03-16T20:11:30.960Z,100716.28
2023-03-16T20:13:58.841Z,100718.69
2023-03-16T20:16:33.975Z,100723.34
2023-03-16T20:19:05.425Z,100722.63
2023-03-16T20:21:32.708Z,100713.72
2023-03-16T20:23:59.630Z,100719.31
2023-03-16T20:26:33.491Z,100727.44
2023-03-16T20:29:01.567Z,100736.38
2023-03-16T20:31:31.520Z,100733.13
2023-03-16T20:33:59.100Z,100739.91
2023-03-16T20:36:26.798Z,100734.75
2023-03-16T20:38:53.656Z,100732.84
2023-03-16T20:41:28.073Z,100741.53
2023-03-16T20:43:56.958Z,100742.47
2023-03-16T20:46:27.463Z,100735.97
2023-03-16T20:48:54.731Z,100738.03
2023-03-16T20:51:21.760Z,100733.97
2023-03-16T20:53:49.108Z,100730.03
2023-03-16T20:56:25.982Z,100725.97
2023-03-16T20:58:55.679Z,100731.25
2023-03-16T21:01:24.649Z,100729.00
2023-03-16T21:03:55.383Z,100719.66
2023-03-16T21:06:30.010Z,100727.50
2023-03-16T21:08:59.520Z,100719.38
2023-03-16T21:11:36.000Z,100719.09
2023-03-16T21:14:04.987Z,100726.97
2023-03-16T21:16:32.210Z,100727.13
2023-03-16T21:18:59.247Z,100724.81
2023-03-16T21:21:26.180Z,100725.06
2023-03-16T21:23:53.299Z,100721.59
2023-03-16T21:26:23.201Z,100738.06
2023-03-16T21:28:59.607Z,100727.50
2023-03-16T21:31:27.151Z,100727.25
2023-03-16T21:33:55.499Z,100724.28
2023-03-16T21:36:26.298Z,100724.53
2023-03-16T21:38:53.697Z,100735.22
2023-03-16T21:41:21.163Z,100731.41
2023-03-16T21:43:50.052Z,100729.78
2023-03-16T21:46:22.362Z,100721.81
2023-03-16T21:48:55.019Z,100720.47
2023-03-16T21:51:32.219Z,100734.28
2023-03-16T21:53:59.336Z,100728.84
2023-03-16T21:56:26.598Z,100718.31
2023-03-16T21:58:54.857Z,100720.47
2023-03-16T22:01:33.009Z,100728.31
2023-03-16T22:04:05.368Z,100732.78
2023-03-16T22:06:32.590Z,100729.53
2023-03-16T22:09:01.016Z,100710.75
2023-03-16T22:11:30.143Z,100713.03
2023-03-16T22:13:59.040Z,100714.00
2023-03-16T22:16:30.081Z,100720.47
2023-03-16T22:18:58.140Z,100722.88
2023-03-16T22:21:37.540Z,100703.72
2023-03-16T22:24:07.499Z,100705.59
2023-03-16T22:26:34.456Z,100716.13
2023-03-16T22:29:01.956Z,100715.56
2023-03-16T22:31:33.628Z,100718.53
2023-03-16T22:34:01.387Z,100708.81
2023-03-16T22:36:28.391Z,100716.09
2023-03-16T22:39:06.226Z,100734.97
2023-03-16T22:41:33.570Z,100723.66
2023-03-16T22:44:01.777Z,100727.84
2023-03-16T22:46:29.514Z,100739.88
2023-03-16T22:48:57.019Z,100736.63
2023-03-16T22:51:29.626Z,100732.41
2023-03-16T22:54:02.041Z,100738.88
2023-03-16T22:56:31.410Z,100736.97
2023-03-16T22:59:04.300Z,100743.06
2023-03-16T23:01:38.460Z,100740.06
2023-03-16T23:04:17.361Z,100737.59
2023-03-16T23:06:49.740Z,100739.25
2023-03-16T23:09:18.460Z,100737.88
2023-03-16T23:11:47.268Z,100739.63
2023-03-16T23:14:21.282Z,100732.88
2023-03-16T23:16:49.422Z,100741.38
2023-03-16T23:19:32.839Z,100729.22
2023-03-16T23:22:06.943Z,100726.78
2023-03-16T23:24:34.664Z,100722.22
2023-03-16T23:27:01.886Z,100719.88
2023-03-16T23:29:29.447Z,100721.09
2023-03-16T23:31:56.657Z,100724.84
2023-03-16T23:34:25.588Z,100728.34
2023-03-16T23:36:52.729Z,100722.41
2023-03-16T23:39:19.597Z,100721.59
2023-03-16T23:41:48.328Z,100720.78
2023-03-16T23:44:29.027Z,100724.41
2023-03-16T23:46:59.654Z,100723.47
2023-03-16T23:49:38.390Z,100724.00
2023-03-16T23:52:05.553Z,100722.50
2023-03-16T23:54:33.344Z,100724.25
2023-03-16T23:57:00.320Z,100728.03
2023-03-16T23:59:27.885Z,100720.50
